Time;durP1;ratioP1;P1;durP2;ratioP2;P2;SDS_P1;SDS_P2;PMS_P1;PMS_P2;Temp;Humidity;BMP_temperature;BMP_pressure;BME280_temperature;BME280_humidity;BME280_pressure;Samples;Min_cycle;Max_cycle;Signal;HPM_P1;HPM_P2
2021/07/30 00:00:34;;;;;;;3.50;1.97;;;18.60;99.90;;;;;;4920069;29;20485;-75
2021/07/30 00:03:01;;;;;;;7.00;2.20;;;18.50;99.90;;;;;;4920156;29;20465;-78
2021/07/30 00:05:27;;;;;;;5.77;2.50;;;18.50;99.90;;;;;;4920206;29;20476;-76
2021/07/30 00:07:56;;;;;;;6.43;2.70;;;18.50;99.90;;;;;;4919785;29;20476;-76
2021/07/30 00:10:23;;;;;;;3.80;2.23;;;18.50;99.90;;;;;;4919659;29;20462;-76
2021/07/30 00:12:55;;;;;;;3.97;2.70;;;18.50;99.90;;;;;;4919319;29;20490;-76
2021/07/30 00:15:22;;;;;;;2.60;2.27;;;18.50;99.90;;;;;;4919504;29;20819;-76
2021/07/30 00:17:49;;;;;;;3.20;2.00;;;18.40;99.90;;;;;;4920338;29;20466;-76
2021/07/30 00:20:19;;;;;;;3.20;2.30;;;18.40;99.90;;;;;;4920932;29;20521;-76
2021/07/30 00:22:45;;;;;;;5.97;2.47;;;18.40;99.90;;;;;;4920008;29;20457;-76
2021/07/30 00:25:14;;;;;;;3.70;2.33;;;18.30;99.90;;;;;;4919469;29;20461;-77
2021/07/30 00:27:41;;;;;;;6.00;2.50;;;18.30;99.90;;;;;;4920110;29;20465;-77
2021/07/30 00:30:09;;;;;;;5.17;2.30;;;18.30;99.90;;;;;;4919994;29;20458;-77
2021/07/30 00:32:36;;;;;;;5.50;2.23;;;18.30;99.90;;;;;;4922041;29;20457;-77
2021/07/30 00:35:03;;;;;;;5.10;2.30;;;18.20;99.90;;;;;;4920802;29;20532;-76
2021/07/30 00:37:29;;;;;;;2.23;2.00;;;18.30;99.90;;;;;;4919280;29;20476;-76
2021/07/30 00:39:56;;;;;;;4.90;2.60;;;18.20;99.90;;;;;;4919685;29;20485;-77
2021/07/30 00:42:24;;;;;;;3.57;2.77;;;18.20;99.90;;;;;;4919687;29;20470;-77
2021/07/30 00:44:53;;;;;;;5.13;2.70;;;18.20;99.90;;;;;;4919809;29;20469;-76
2021/07/30 00:47:19;;;;;;;4.80;2.50;;;18.20;99.90;;;;;;4918838;29;20473;-76
2021/07/30 00:49:46;;;;;;;5.67;2.70;;;18.20;99.90;;;;;;4918701;29;20496;-76
2021/07/30 00:52:13;;;;;;;3.77;2.53;;;18.20;99.90;;;;;;4918781;29;20477;-75
2021/07/30 00:54:40;;;;;;;5.13;2.50;;;18.20;99.90;;;;;;4919105;29;20472;-77
2021/07/30 00:57:07;;;;;;;7.20;2.70;;;18.20;99.90;;;;;;4919159;29;20465;-76
2021/07/30 00:59:36;;;;;;;2.67;2.30;;;18.10;99.90;;;;;;4918942;29;20527;-76
2021/07/30 01:02:03;;;;;;;3.27;2.63;;;18.10;99.90;;;;;;4919478;29;20528;-77
2021/07/30 01:04:29;;;;;;;5.53;2.80;;;18.10;99.90;;;;;;4919160;29;20465;-77
2021/07/30 01:06:56;;;;;;;7.40;2.47;;;18.10;99.90;;;;;;4918838;29;20462;-77
2021/07/30 01:09:23;;;;;;;3.87;2.30;;;18.10;99.90;;;;;;4919731;29;20472;-77
2021/07/30 01:11:50;;;;;;;3.73;2.30;;;18.10;99.90;;;;;;4919573;29;20490;-78
2021/07/30 01:14:17;;;;;;;4.80;2.20;;;18.00;99.90;;;;;;4919708;29;20492;-76
2021/07/30 01:16:45;;;;;;;3.00;2.17;;;18.00;99.90;;;;;;4919266;29;20930;-76
2021/07/30 01:19:25;;;;;;;3.73;2.00;;;18.00;99.90;;;;;;4921168;29;20477;-76
2021/07/30 01:21:53;;;;;;;2.87;2.30;;;18.00;99.90;;;;;;4928926;29;20507;-76
2021/07/30 01:24:22;;;;;;;3.00;2.23;;;18.00;99.90;;;;;;4932371;29;20456;-76
2021/07/30 01:26:50;;;;;;;2.73;1.90;;;18.00;99.90;;;;;;4925893;29;20528;-76
2021/07/30 01:29:17;;;;;;;6.10;2.60;;;17.90;99.90;;;;;;4925519;29;20461;-77
2021/07/30 01:31:43;;;;;;;4.33;2.23;;;17.90;99.90;;;;;;4925641;29;20470;-77
2021/07/30 01:34:10;;;;;;;4.50;3.37;;;17.90;99.90;;;;;;4924451;29;20468;-76
2021/07/30 01:36:37;;;;;;;9.10;2.13;;;17.90;99.90;;;;;;4922861;29;20536;-75
2021/07/30 01:39:04;;;;;;;9.50;2.20;;;17.90;99.90;;;;;;4922279;29;20506;-76
2021/07/30 01:41:32;;;;;;;4.60;2.20;;;17.90;99.90;;;;;;4921964;29;20496;-77
2021/07/30 01:43:58;;;;;;;4.00;2.63;;;17.80;99.90;;;;;;4922509;29;20461;-76
2021/07/30 01:46:25;;;;;;;3.13;1.80;;;17.80;99.90;;;;;;4922223;29;20470;-76
2021/07/30 01:48:52;;;;;;;5.10;2.37;;;17.80;99.90;;;;;;4922538;29;20787;-78
2021/07/30 01:51:20;;;;;;;4.80;2.17;;;17.80;99.90;;;;;;4921835;29;20457;-76
2021/07/30 01:53:46;;;;;;;4.30;2.00;;;17.70;99.90;;;;;;4922356;29;20500;-77
2021/07/30 01:56:13;;;;;;;6.23;2.07;;;17.70;99.90;;;;;;4922381;29;20469;-76
2021/07/30 01:58:41;;;;;;;4.47;2.20;;;17.70;99.90;;;;;;4921855;29;20582;-76
2021/07/30 02:01:08;;;;;;;3.60;2.03;;;17.60;99.90;;;;;;4922183;29;20485;-77
2021/07/30 02:03:34;;;;;;;2.53;2.20;;;17.60;99.90;;;;;;4921859;29;20461;-77
2021/07/30 02:06:08;;;;;;;2.40;2.10;;;17.60;99.90;;;;;;4922195;29;20469;-77
2021/07/30 02:08:35;;;;;;;5.20;2.50;;;17.50;99.90;;;;;;4922215;29;20497;-76
2021/07/30 02:11:01;;;;;;;6.03;2.70;;;17.50;99.90;;;;;;4922646;29;20787;-78
2021/07/30 02:16:16;;;;;;;4.83;2.57;;;17.50;99.90;;;;;;4921608;29;20549;-76
2021/07/30 02:18:43;;;;;;;5.20;2.90;;;17.40;99.90;;;;;;4922180;29;20524;-76
2021/07/30 02:21:09;;;;;;;3.57;2.63;;;17.40;99.90;;;;;;4921274;29;20489;-77
2021/07/30 02:23:36;;;;;;;5.20;2.43;;;17.40;99.90;;;;;;4921532;29;20827;-77
2021/07/30 02:26:03;;;;;;;3.07;2.50;;;17.40;99.90;;;;;;4921279;29;20469;-77
2021/07/30 02:28:30;;;;;;;4.57;2.10;;;17.40;99.90;;;;;;4921409;29;20810;-75
2021/07/30 02:30:56;;;;;;;4.83;2.53;;;17.50;99.90;;;;;;4921477;29;20747;-76
2021/07/30 02:33:24;;;;;;;6.60;2.10;;;17.40;99.90;;;;;;4921321;29;20466;-77
2021/07/30 02:35:53;;;;;;;3.73;2.30;;;17.40;99.90;;;;;;4919919;29;20466;-77
2021/07/30 02:38:21;;;;;;;2.43;2.20;;;17.40;99.90;;;;;;4921388;29;20476;-76
2021/07/30 02:40:48;;;;;;;2.47;2.13;;;17.40;99.90;;;;;;4921519;29;20580;-77
2021/07/30 02:43:14;;;;;;;5.83;2.60;;;17.40;99.90;;;;;;4920905;29;20465;-77
2021/07/30 02:45:41;;;;;;;9.63;2.67;;;17.30;99.90;;;;;;4921241;29;20469;-77
2021/07/30 02:48:08;;;;;;;4.67;2.30;;;17.30;99.90;;;;;;4920822;29;20791;-77
2021/07/30 02:50:38;;;;;;;6.30;2.53;;;17.30;99.90;;;;;;4920779;29;20495;-77
2021/07/30 02:53:05;;;;;;;6.30;2.40;;;17.30;99.90;;;;;;4921038;29;20446;-76
2021/07/30 02:55:34;;;;;;;7.30;2.77;;;17.30;99.90;;;;;;4920798;29;20462;-76
2021/07/30 02:58:00;;;;;;;7.30;2.50;;;17.20;99.90;;;;;;4920711;29;20476;-76
2021/07/30 03:00:27;;;;;;;3.50;2.50;;;17.20;99.90;;;;;;4920727;29;20465;-76
2021/07/30 03:02:54;;;;;;;4.00;2.30;;;17.20;99.90;;;;;;4920850;29;20469;-76
2021/07/30 03:05:21;;;;;;;3.33;2.80;;;17.20;99.90;;;;;;4920421;29;20461;-77
2021/07/30 03:07:49;;;;;;;2.93;2.60;;;17.10;99.90;;;;;;4921988;29;20461;-77
2021/07/30 03:10:16;;;;;;;2.83;2.37;;;17.10;99.90;;;;;;4921144;29;20480;-77
2021/07/30 03:12:42;;;;;;;3.07;2.30;;;17.10;99.90;;;;;;4920320;29;20497;-76
2021/07/30 03:15:10;;;;;;;3.33;2.30;;;17.00;99.90;;;;;;4920545;29;20476;-77
2021/07/30 03:17:36;;;;;;;5.87;2.87;;;17.00;99.90;;;;;;4920435;29;20468;-76
2021/07/30 03:20:05;;;;;;;3.60;2.50;;;17.00;99.90;;;;;;4920513;29;20469;-76
2021/07/30 03:22:32;;;;;;;5.17;2.43;;;16.90;99.90;;;;;;4920290;29;20481;-76
2021/07/30 03:25:00;;;;;;;6.03;2.73;;;16.90;99.90;;;;;;4920010;29;20481;-76
2021/07/30 03:27:27;;;;;;;3.37;2.83;;;16.90;99.90;;;;;;4920029;29;20477;-76
2021/07/30 03:29:54;;;;;;;4.90;2.40;;;16.90;99.90;;;;;;4919934;29;20462;-76
2021/07/30 03:32:21;;;;;;;3.10;2.77;;;16.90;99.90;;;;;;4920118;29;20843;-75
2021/07/30 03:34:48;;;;;;;6.97;2.60;;;16.90;99.90;;;;;;4919918;29;20568;-76
2021/07/30 03:37:15;;;;;;;4.53;2.60;;;17.00;99.90;;;;;;4920344;29;20774;-76
2021/07/30 03:39:41;;;;;;;6.30;3.00;;;17.00;99.90;;;;;;4919611;29;20926;-75
2021/07/30 03:42:10;;;;;;;4.57;2.70;;;17.00;99.90;;;;;;4919803;29;20832;-76
2021/07/30 03:44:37;;;;;;;3.87;2.40;;;17.00;99.90;;;;;;4919555;29;20461;-76
2021/07/30 03:47:05;;;;;;;5.10;2.70;;;17.00;99.90;;;;;;4919558;29;20461;-76
2021/07/30 03:49:31;;;;;;;4.23;2.83;;;17.00;99.90;;;;;;4920708;29;20803;-77
2021/07/30 03:51:58;;;;;;;5.90;3.00;;;17.00;99.90;;;;;;4919814;29;20462;-76
2021/07/30 03:54:25;;;;;;;9.00;2.87;;;17.00;99.90;;;;;;4919992;29;20469;-76
2021/07/30 03:56:52;;;;;;;4.33;2.80;;;17.00;99.90;;;;;;4919796;29;20466;-77
2021/07/30 03:59:20;;;;;;;4.40;2.97;;;17.00;99.90;;;;;;4919894;29;20473;-75
2021/07/30 04:01:48;;;;;;;2.90;2.60;;;17.00;99.90;;;;;;4919907;29;20832;-76
2021/07/30 04:04:15;;;;;;;11.33;2.43;;;17.00;99.90;;;;;;4919446;29;20943;-76
2021/07/30 04:06:44;;;;;;;3.03;2.73;;;17.00;99.90;;;;;;4919660;29;20461;-79
2021/07/30 04:09:11;;;;;;;3.00;2.70;;;17.00;99.90;;;;;;4919705;29;20477;-77
2021/07/30 04:11:38;;;;;;;4.60;2.70;;;17.00;99.90;;;;;;4919877;29;20567;-76
2021/07/30 04:14:06;;;;;;;3.60;2.70;;;17.00;99.90;;;;;;4919378;29;20504;-76
2021/07/30 04:16:35;;;;;;;3.60;2.40;;;17.00;99.90;;;;;;4919990;29;20465;-77
2021/07/30 04:19:03;;;;;;;3.43;2.30;;;17.00;99.90;;;;;;4919657;29;20466;-76
2021/07/30 04:21:30;;;;;;;2.60;2.30;;;17.00;99.90;;;;;;4919318;29;20497;-77
2021/07/30 04:23:59;;;;;;;5.20;2.53;;;17.00;99.90;;;;;;4919619;29;20481;-77
2021/07/30 04:26:26;;;;;;;3.63;2.70;;;17.00;99.90;;;;;;4919362;29;20524;-77
2021/07/30 04:28:52;;;;;;;4.70;3.10;;;17.00;99.90;;;;;;4919098;29;20949;-77
2021/07/30 04:31:19;;;;;;;3.83;2.77;;;17.00;99.90;;;;;;4919408;29;20603;-76
2021/07/30 04:33:47;;;;;;;4.03;2.70;;;17.10;99.90;;;;;;4918783;29;20552;-76
2021/07/30 04:36:15;;;;;;;5.10;2.40;;;17.10;99.90;;;;;;4919111;29;20824;-76
2021/07/30 04:38:42;;;;;;;4.43;2.87;;;17.10;99.90;;;;;;4919045;29;20489;-75
2021/07/30 04:41:10;;;;;;;2.70;2.50;;;17.10;99.90;;;;;;4918947;29;20591;-76
2021/07/30 04:43:37;;;;;;;2.93;2.63;;;17.10;99.90;;;;;;4919148;29;20466;-76
2021/07/30 04:46:04;;;;;;;3.07;2.87;;;17.10;99.90;;;;;;4918716;29;20950;-75
2021/07/30 04:48:31;;;;;;;3.20;2.60;;;17.10;99.90;;;;;;4918845;29;20542;-75
2021/07/30 04:51:02;;;;;;;2.67;2.47;;;17.10;99.90;;;;;;4919493;29;20475;-76
2021/07/30 04:53:29;;;;;;;3.23;2.40;;;17.10;99.90;;;;;;4918987;29;20819;-76
2021/07/30 04:55:56;;;;;;;2.73;2.43;;;17.20;99.90;;;;;;4918837;29;20469;-77
2021/07/30 04:58:22;;;;;;;5.63;3.00;;;17.10;99.90;;;;;;4917901;29;20466;-76
2021/07/30 05:00:49;;;;;;;4.30;3.00;;;17.10;99.90;;;;;;4918515;29;20499;-76
2021/07/30 05:03:16;;;;;;;4.47;2.60;;;17.20;99.90;;;;;;4918777;29;20465;-76
2021/07/30 05:05:43;;;;;;;7.23;2.90;;;17.20;99.90;;;;;;4918636;29;20472;-76
2021/07/30 05:08:11;;;;;;;5.30;2.87;;;17.20;99.90;;;;;;4919005;29;20770;-76
2021/07/30 05:10:38;;;;;;;3.80;2.90;;;17.30;99.90;;;;;;4918844;29;20465;-76
2021/07/30 05:13:05;;;;;;;4.80;3.37;;;17.30;99.90;;;;;;4918575;29;20489;-76
2021/07/30 05:15:32;;;;;;;4.47;3.27;;;17.30;99.90;;;;;;4918739;29;20473;-76
2021/07/30 05:17:58;;;;;;;5.67;2.80;;;17.30;99.90;;;;;;4918479;29;20479;-76
2021/07/30 05:20:26;;;;;;;6.30;2.93;;;17.40;99.90;;;;;;4918876;29;20848;-76
2021/07/30 05:22:52;;;;;;;6.23;2.97;;;17.40;99.90;;;;;;4918509;29;20485;-76
2021/07/30 05:25:20;;;;;;;4.57;2.73;;;17.40;99.90;;;;;;4918814;29;20894;-76
2021/07/30 05:27:47;;;;;;;4.43;3.30;;;17.40;99.90;;;;;;4918635;29;20465;-75
2021/07/30 05:30:14;;;;;;;6.87;3.77;;;17.40;99.90;;;;;;4918872;29;20467;-75
2021/07/30 05:32:41;;;;;;;5.37;3.10;;;17.50;99.90;;;;;;4918549;29;20462;-75
2021/07/30 05:35:09;;;;;;;4.40;3.00;;;17.50;99.90;;;;;;4918283;29;20477;-76
2021/07/30 05:37:38;;;;;;;3.93;3.40;;;17.60;99.90;;;;;;4919036;29;20476;-76
2021/07/30 05:40:09;;;;;;;4.87;2.90;;;17.60;99.90;;;;;;4918897;29;20952;-75
2021/07/30 05:42:37;;;;;;;4.13;2.67;;;17.60;99.90;;;;;;4918319;29;20474;-76
2021/07/30 05:45:04;;;;;;;3.90;2.90;;;17.70;99.90;;;;;;4918413;29;20795;-76
2021/07/30 05:47:30;;;;;;;4.83;2.80;;;17.70;99.90;;;;;;4918321;29;20958;-76
2021/07/30 05:49:59;;;;;;;3.40;2.67;;;17.80;99.90;;;;;;4918371;29;20465;-76
2021/07/30 05:52:26;;;;;;;5.40;2.70;;;17.90;99.90;;;;;;4918650;29;20469;-76
2021/07/30 05:54:52;;;;;;;5.93;2.97;;;17.90;99.90;;;;;;4918450;29;20465;-76
2021/07/30 05:57:19;;;;;;;3.23;2.67;;;17.90;99.90;;;;;;4918418;29;20477;-76
2021/07/30 05:59:48;;;;;;;5.73;2.57;;;17.90;99.90;;;;;;4918613;29;20949;-76
2021/07/30 06:02:18;;;;;;;5.23;2.70;;;18.00;99.90;;;;;;4918431;29;20485;-76
2021/07/30 06:04:46;;;;;;;7.10;2.50;;;18.00;99.90;;;;;;4918704;29;20462;-76
2021/07/30 06:07:13;;;;;;;6.00;3.37;;;18.10;99.90;;;;;;4918296;29;20863;-76
2021/07/30 06:09:40;;;;;;;4.27;2.40;;;18.10;99.90;;;;;;4918914;29;20476;-77
2021/07/30 06:12:07;;;;;;;6.97;2.90;;;18.10;99.90;;;;;;4922323;29;20456;-78
2021/07/30 06:14:33;;;;;;;3.77;2.50;;;18.10;99.90;;;;;;4923229;29;20468;-77
2021/07/30 06:17:02;;;;;;;5.30;2.50;;;18.20;99.90;;;;;;4922408;29;20800;-77
2021/07/30 06:19:28;;;;;;;5.10;2.90;;;18.20;99.90;;;;;;4922336;29;20465;-77
2021/07/30 06:21:55;;;;;;;8.03;2.70;;;18.30;99.90;;;;;;4922321;29;20807;-77
2021/07/30 06:24:22;;;;;;;3.50;2.77;;;18.40;99.90;;;;;;4921795;29;20867;-75
2021/07/30 06:26:49;;;;;;;4.27;2.80;;;18.40;99.90;;;;;;4921766;29;20465;-75
2021/07/30 06:29:17;;;;;;;2.60;2.40;;;18.50;99.90;;;;;;4921759;29;20465;-76
2021/07/30 06:31:43;;;;;;;6.27;3.03;;;18.60;99.90;;;;;;4921396;29;20462;-77
2021/07/30 06:34:11;;;;;;;6.73;3.07;;;18.70;99.90;;;;;;4921622;29;20469;-78
2021/07/30 06:36:38;;;;;;;6.40;3.00;;;18.70;99.90;;;;;;4923264;29;20465;-77
2021/07/30 06:39:05;;;;;;;4.67;2.67;;;18.80;99.90;;;;;;4923476;29;20497;-78
2021/07/30 06:41:32;;;;;;;5.43;2.70;;;18.90;99.90;;;;;;4922473;29;20480;-77
2021/07/30 06:43:59;;;;;;;5.47;2.57;;;18.90;99.90;;;;;;4922039;29;20473;-78
2021/07/30 06:46:26;;;;;;;8.33;2.50;;;18.90;99.90;;;;;;4922264;29;20794;-77
2021/07/30 06:48:52;;;;;;;7.77;3.23;;;19.00;99.90;;;;;;4922743;29;20461;-77
2021/07/30 06:51:20;;;;;;;6.90;3.17;;;19.00;99.90;;;;;;4922230;29;20477;-76
2021/07/30 06:53:47;;;;;;;6.80;3.10;;;19.00;99.90;;;;;;4922218;29;20770;-77
2021/07/30 06:56:15;;;;;;;5.03;2.43;;;19.00;99.90;;;;;;4921018;29;20461;-77
2021/07/30 06:58:42;;;;;;;10.33;3.20;;;19.00;99.90;;;;;;4921476;29;20950;-76
2021/07/30 07:01:08;;;;;;;7.80;3.20;;;19.10;99.90;;;;;;4921566;29;20461;-76
2021/07/30 07:03:35;;;;;;;7.57;2.80;;;19.20;99.90;;;;;;4921034;29;20492;-77
2021/07/30 07:06:02;;;;;;;10.00;3.17;;;19.20;99.90;;;;;;4921846;29;20469;-75
2021/07/30 07:08:30;;;;;;;6.50;2.97;;;19.30;99.90;;;;;;4920623;29;20473;-77
2021/07/30 07:10:56;;;;;;;3.90;2.87;;;19.30;99.90;;;;;;4921484;29;20795;-77
2021/07/30 07:13:23;;;;;;;5.10;2.80;;;19.30;99.90;;;;;;4920510;29;20485;-78
2021/07/30 07:15:50;;;;;;;8.40;3.40;;;19.30;99.90;;;;;;4920878;29;20927;-77
2021/07/30 07:18:17;;;;;;;4.67;3.07;;;19.40;99.90;;;;;;4921522;29;20476;-77
2021/07/30 07:20:43;;;;;;;7.87;2.90;;;19.40;99.90;;;;;;4921975;29;20465;-76
2021/07/30 07:23:12;;;;;;;5.33;2.80;;;19.50;99.90;;;;;;4919591;29;20482;-77
2021/07/30 07:25:43;;;;;;;6.97;3.50;;;19.60;99.90;;;;;;4921308;29;20466;-77
2021/07/30 07:28:10;;;;;;;5.47;2.90;;;19.60;99.90;;;;;;4920659;29;20460;-77
2021/07/30 07:30:37;;;;;;;5.93;3.17;;;19.70;99.90;;;;;;4921598;29;20468;-77
2021/07/30 07:33:06;;;;;;;4.93;2.87;;;19.70;99.90;;;;;;4921438;29;20767;-78
2021/07/30 07:35:33;;;;;;;4.83;2.47;;;19.80;99.90;;;;;;4921893;29;20461;-79
2021/07/30 07:38:03;;;;;;;4.90;2.90;;;19.90;99.90;;;;;;4922454;29;20465;-76
2021/07/30 07:40:30;;;;;;;8.67;3.23;;;20.00;99.90;;;;;;4920964;29;20461;-78
2021/07/30 07:42:58;;;;;;;5.83;3.40;;;20.10;99.90;;;;;;4921312;29;20478;-79
2021/07/30 07:45:25;;;;;;;4.97;3.00;;;20.10;99.90;;;;;;4921903;29;20484;-77
2021/07/30 07:47:51;;;;;;;5.80;3.17;;;20.10;99.90;;;;;;4920937;29;20462;-76
2021/07/30 07:50:20;;;;;;;4.83;2.90;;;20.20;99.90;;;;;;4920980;29;20915;-76
2021/07/30 07:52:47;;;;;;;5.30;3.10;;;20.30;99.90;;;;;;4920733;29;20472;-76
2021/07/30 07:55:13;;;;;;;4.80;3.13;;;20.40;99.90;;;;;;4920393;29;20470;-76
2021/07/30 07:57:41;;;;;;;4.47;3.10;;;20.50;99.90;;;;;;4920119;29;20545;-77
2021/07/30 08:00:10;;;;;;;3.80;2.80;;;20.50;99.90;;;;;;4920909;29;20982;-75
2021/07/30 08:02:37;;;;;;;7.20;3.27;;;20.40;99.90;;;;;;4920887;29;20913;-77
2021/07/30 08:05:05;;;;;;;6.90;3.00;;;20.40;99.90;;;;;;4921062;29;20484;-77
2021/07/30 08:07:31;;;;;;;10.17;3.23;;;20.40;99.90;;;;;;4921851;29;20465;-76
2021/07/30 08:09:58;;;;;;;4.80;3.17;;;20.40;99.90;;;;;;4920895;29;20799;-75
2021/07/30 08:12:25;;;;;;;7.00;3.40;;;20.40;99.90;;;;;;4920605;29;20473;-77
2021/07/30 08:14:52;;;;;;;3.80;2.80;;;20.50;99.90;;;;;;4921406;29;20442;-79
2021/07/30 08:17:20;;;;;;;4.70;3.30;;;20.50;99.90;;;;;;4921241;29;20476;-77
2021/07/30 08:19:50;;;;;;;10.00;3.50;;;20.60;99.90;;;;;;4921235;29;20788;-76
2021/07/30 08:22:17;;;;;;;7.80;3.23;;;20.80;99.90;;;;;;4921082;29;20486;-79
2021/07/30 08:24:44;;;;;;;6.30;3.30;;;20.80;99.90;;;;;;4920406;29;20476;-77
2021/07/30 08:27:11;;;;;;;6.47;3.60;;;20.90;99.90;;;;;;4920397;29;20465;-78
2021/07/30 08:29:37;;;;;;;11.80;3.60;;;20.90;99.90;;;;;;4921304;29;20465;-77
2021/07/30 08:32:04;;;;;;;8.87;3.47;;;20.90;99.90;;;;;;4920404;29;20790;-78
2021/07/30 08:34:32;;;;;;;5.00;3.00;;;21.00;99.90;;;;;;4919557;29;20470;-77
2021/07/30 08:36:59;;;;;;;6.13;3.63;;;21.00;99.90;;;;;;4921666;29;20465;-77
2021/07/30 08:39:26;;;;;;;4.67;3.20;;;21.00;99.90;;;;;;4922121;29;20461;-77
2021/07/30 08:41:58;;;;;;;6.77;3.17;;;21.00;99.90;;;;;;4921446;29;20467;-77
2021/07/30 08:44:24;;;;;;;4.80;2.70;;;21.00;99.90;;;;;;4919830;29;20442;-76
2021/07/30 08:46:52;;;;;;;10.73;3.23;;;21.10;99.90;;;;;;4920584;29;20477;-77
2021/07/30 08:49:21;;;;;;;5.30;3.77;;;21.10;99.90;;;;;;4920466;29;20465;-77
2021/07/30 08:51:54;;;;;;;9.60;3.30;;;21.10;99.90;;;;;;4920143;29;20461;-75
2021/07/30 08:54:20;;;;;;;9.43;3.07;;;21.20;99.90;;;;;;4920090;29;20529;-76
2021/07/30 08:56:47;;;;;;;6.57;4.13;;;21.30;99.90;;;;;;4919605;29;20461;-77
2021/07/30 08:59:14;;;;;;;5.47;4.50;;;21.40;99.90;;;;;;4919511;29;20461;-76
2021/07/30 09:01:52;;;;;;;4.57;3.93;;;21.50;99.90;;;;;;4919485;29;20556;-76
2021/07/30 09:04:26;;;;;;;6.63;3.10;;;21.60;99.90;;;;;;4919832;29;20984;-76
2021/07/30 09:06:55;;;;;;;7.33;3.07;;;21.80;99.90;;;;;;4919878;29;20469;-75
2021/07/30 09:09:22;;;;;;;11.50;3.47;;;21.80;99.90;;;;;;4920703;29;20465;-77
2021/07/30 09:11:53;;;;;;;5.63;3.17;;;21.80;99.90;;;;;;4919967;29;20465;-77
2021/07/30 09:14:33;;;;;;;7.13;3.37;;;21.80;99.90;;;;;;4919272;29;20481;-75
2021/07/30 09:17:00;;;;;;;9.93;3.43;;;21.80;99.90;;;;;;4919475;29;20950;-76
2021/07/30 09:19:27;;;;;;;4.83;2.80;;;21.80;99.90;;;;;;4920727;29;20932;-76
2021/07/30 09:22:05;;;;;;;7.13;3.00;;;21.90;99.90;;;;;;4920067;29;20779;-76
2021/07/30 09:24:37;;;;;;;7.67;3.00;;;22.00;99.90;;;;;;4919855;29;20473;-77
2021/07/30 09:27:04;;;;;;;5.47;3.47;;;22.00;99.90;;;;;;4920314;29;20479;-77
2021/07/30 09:29:32;;;;;;;6.60;3.00;;;22.10;99.90;;;;;;4920579;29;20913;-76
2021/07/30 09:32:01;;;;;;;4.70;2.87;;;22.20;99.90;;;;;;4920421;29;20997;-76
2021/07/30 09:34:29;;;;;;;7.07;3.10;;;22.30;99.90;;;;;;4920130;29;20457;-76
2021/07/30 09:36:58;;;;;;;6.27;3.30;;;22.40;99.90;;;;;;4919627;29;20465;-76
2021/07/30 09:39:28;;;;;;;6.37;3.00;;;22.50;99.90;;;;;;4919545;29;20794;-75
2021/07/30 09:42:01;;;;;;;4.03;2.73;;;22.50;99.90;;;;;;4919849;29;21005;-76
2021/07/30 09:44:29;;;;;;;3.97;2.63;;;22.50;99.90;;;;;;4920233;29;20851;-78
2021/07/30 09:47:07;;;;;;;7.63;2.83;;;22.40;99.90;;;;;;4923250;29;20464;-77
2021/07/30 09:49:38;;;;;;;4.53;2.70;;;22.40;99.90;;;;;;4923602;29;20898;-75
2021/07/30 09:52:07;;;;;;;3.17;2.53;;;22.50;99.90;;;;;;4923193;29;20913;-75
2021/07/30 09:54:36;;;;;;;6.30;2.80;;;22.40;99.90;;;;;;4921975;29;20473;-74
2021/07/30 09:57:06;;;;;;;5.50;3.20;;;22.40;99.90;;;;;;4922364;29;20465;-76
2021/07/30 09:59:37;;;;;;;3.83;3.40;;;22.30;99.90;;;;;;4922298;29;20479;-76
2021/07/30 10:02:08;;;;;;;7.03;3.40;;;22.20;99.90;;;;;;4922883;29;20461;-77
2021/07/30 10:04:36;;;;;;;4.13;2.67;;;22.20;99.90;;;;;;4922234;29;20573;-77
2021/07/30 10:07:04;;;;;;;5.23;2.57;;;22.10;99.90;;;;;;4922790;29;20473;-76
2021/07/30 10:09:34;;;;;;;11.00;2.90;;;22.20;99.90;;;;;;4923532;29;20775;-76
2021/07/30 10:12:06;;;;;;;4.53;2.80;;;22.30;99.90;;;;;;4923081;29;20535;-76
2021/07/30 10:14:33;;;;;;;7.30;2.93;;;22.60;99.90;;;;;;4922533;29;20501;-77
2021/07/30 10:17:02;;;;;;;4.67;3.23;;;22.80;99.90;;;;;;4923221;29;20838;-76
2021/07/30 10:19:35;;;;;;;8.33;2.93;;;23.00;99.90;;;;;;4922491;29;20552;-76
2021/07/30 10:22:06;;;;;;;5.10;2.70;;;23.10;99.90;;;;;;4922734;29;20782;-76
2021/07/30 10:24:38;;;;;;;8.23;2.60;;;23.30;99.90;;;;;;4921786;29;20662;-77
2021/07/30 10:27:07;;;;;;;4.50;2.60;;;23.20;99.90;;;;;;4921474;29;20453;-75
2021/07/30 10:30:09;;;;;;;8.50;2.53;;;23.00;99.90;;;;;;4922021;29;20763;-76
2021/07/30 10:32:50;;;;;;;3.20;2.47;;;22.90;99.90;;;;;;4921703;29;20922;-77
2021/07/30 10:35:19;;;;;;;5.93;3.33;;;22.70;99.90;;;;;;4922225;29;20452;-77
2021/07/30 10:37:47;;;;;;;5.40;2.97;;;22.80;99.90;;;;;;4921920;29;20532;-77
2021/07/30 10:40:19;;;;;;;3.53;2.70;;;22.80;99.90;;;;;;4922426;29;20533;-77
2021/07/30 10:43:07;;;;;;;3.90;2.53;;;22.80;99.90;;;;;;4921461;29;20518;-76
2021/07/30 10:45:38;;;;;;;2.77;2.40;;;23.00;99.90;;;;;;4921313;29;20849;-76
2021/07/30 10:48:39;;;;;;;9.20;2.43;;;23.00;99.90;;;;;;4921714;29;20466;-74
2021/07/30 10:51:26;;;;;;;5.33;2.30;;;23.10;99.90;;;;;;4921072;29;20446;-75
2021/07/30 10:53:59;;;;;;;5.80;2.10;;;23.00;99.90;;;;;;4922051;29;20918;-76
2021/07/30 10:56:48;;;;;;;3.27;2.30;;;23.00;99.90;;;;;;4921178;29;20520;-77
2021/07/30 10:59:21;;;;;;;6.30;2.70;;;23.10;99.90;;;;;;4921679;29;20450;-76
2021/07/30 11:01:59;;;;;;;4.10;3.63;;;23.10;99.90;;;;;;4921927;29;20457;-77
2021/07/30 11:04:27;;;;;;;4.87;2.73;;;23.20;99.90;;;;;;4920785;29;21000;-76
2021/07/30 11:06:55;;;;;;;3.67;2.70;;;23.30;99.90;;;;;;4921588;29;20469;-75
2021/07/30 11:09:37;;;;;;;4.67;2.60;;;23.10;99.90;;;;;;4922940;29;20477;-77
2021/07/30 11:12:17;;;;;;;3.60;2.20;;;23.10;99.90;;;;;;4923609;29;20517;-77
2021/07/30 11:14:48;;;;;;;3.50;2.37;;;23.10;99.90;;;;;;4924758;29;20477;-77
2021/07/30 11:17:15;;;;;;;7.93;2.57;;;23.20;99.90;;;;;;4923760;29;20906;-75
2021/07/30 11:19:45;;;;;;;3.40;2.07;;;23.30;99.90;;;;;;4924581;29;20642;-76
2021/07/30 11:22:14;;;;;;;4.57;2.50;;;23.30;99.90;;;;;;4923418;29;20458;-75
2021/07/30 11:24:46;;;;;;;2.93;2.00;;;23.10;99.90;;;;;;4922940;29;20489;-76
2021/07/30 11:27:15;;;;;;;5.40;2.40;;;23.20;99.90;;;;;;4924191;29;20890;-76
2021/07/30 11:29:48;;;;;;;7.90;2.67;;;23.50;99.90;;;;;;4924095;29;20465;-77
2021/07/30 11:32:16;;;;;;;2.63;2.20;;;23.80;99.90;;;;;;4923812;29;20509;-76
2021/07/30 11:34:46;;;;;;;5.70;2.10;;;24.00;99.90;;;;;;4921298;29;20555;-75
2021/07/30 11:37:16;;;;;;;6.90;2.77;;;24.20;99.90;;;;;;4920881;29;20477;-77
2021/07/30 11:39:44;;;;;;;5.03;2.00;;;24.60;99.90;;;;;;4920529;29;20469;-75
2021/07/30 11:42:14;;;;;;;4.73;2.40;;;25.00;99.90;;;;;;4921177;29;20501;-77
2021/07/30 11:44:42;;;;;;;3.27;2.13;;;25.40;99.90;;;;;;4920256;29;20474;-77
2021/07/30 11:47:10;;;;;;;3.63;2.50;;;25.60;99.90;;;;;;4920982;29;20514;-74
2021/07/30 11:49:40;;;;;;;4.30;2.03;;;25.60;99.90;;;;;;4920758;29;20529;-75
2021/07/30 11:52:09;;;;;;;3.03;2.00;;;25.60;99.90;;;;;;4919911;29;20472;-76
2021/07/30 11:54:37;;;;;;;8.23;2.13;;;25.70;99.90;;;;;;4919664;29;20461;-74
2021/07/30 11:57:05;;;;;;;5.57;2.00;;;26.00;99.90;;;;;;4919871;29;20466;-74
2021/07/30 11:59:45;;;;;;;3.43;2.60;;;26.30;99.90;;;;;;4919761;29;20473;-76
2021/07/30 12:02:18;;;;;;;5.63;2.00;;;26.70;99.90;;;;;;4919386;29;20934;-77
2021/07/30 12:04:51;;;;;;;9.13;3.00;;;27.20;99.90;;;;;;4919735;29;20803;-76
2021/07/30 12:07:21;;;;;;;6.33;2.40;;;27.50;99.90;;;;;;4920001;29;20910;-76
2021/07/30 12:09:51;;;;;;;5.00;2.40;;;27.80;99.90;;;;;;4919596;29;20565;-77
2021/07/30 12:12:19;;;;;;;5.53;2.20;;;28.00;99.90;;;;;;4919885;29;20508;-76
2021/07/30 12:14:51;;;;;;;3.83;2.47;;;28.40;98.50;;;;;;4920319;29;20446;-75
2021/07/30 12:17:20;;;;;;;4.47;1.97;;;28.20;97.40;;;;;;4920062;29;20465;-77
2021/07/30 12:20:03;;;;;;;5.23;2.43;;;28.10;98.30;;;;;;4919424;29;20470;-76
2021/07/30 12:22:37;;;;;;;4.67;2.20;;;28.20;97.30;;;;;;4918131;29;20768;-76
2021/07/30 12:25:06;;;;;;;4.67;2.13;;;27.70;97.20;;;;;;4919204;29;20495;-76
2021/07/30 12:27:33;;;;;;;7.50;2.80;;;27.60;97.20;;;;;;4919588;29;20485;-76
2021/07/30 12:30:00;;;;;;;2.80;2.17;;;27.70;97.60;;;;;;4920066;29;20473;-78
2021/07/30 12:32:38;;;;;;;4.60;2.07;;;28.00;97.20;;;;;;4919838;29;20592;-76
2021/07/30 12:35:07;;;;;;;6.53;2.50;;;28.10;97.20;;;;;;4919837;29;20445;-77
2021/07/30 12:37:35;;;;;;;4.90;2.60;;;28.00;96.60;;;;;;4919730;29;20465;-76
2021/07/30 12:40:05;;;;;;;4.93;2.47;;;27.80;95.90;;;;;;4920047;29;20461;-76
2021/07/30 12:42:34;;;;;;;3.43;2.00;;;27.40;96.50;;;;;;4919583;29;20457;-77
2021/07/30 12:45:09;;;;;;;5.37;2.50;;;27.10;97.80;;;;;;4919816;29;20509;-75
2021/07/30 12:47:40;;;;;;;7.10;2.03;;;27.40;96.60;;;;;;4919540;29;20520;-76
2021/07/30 12:50:27;;;;;;;4.90;2.50;;;27.40;96.50;;;;;;4919657;29;20454;-76
2021/07/30 12:53:18;;;;;;;5.43;2.50;;;27.40;96.40;;;;;;4918992;29;20555;-76
2021/07/30 12:56:05;;;;;;;3.83;2.20;;;27.30;96.60;;;;;;4904904;29;20469;-77